createdAt,value
2023-03-04T00:03:40.075Z,96111.13
2023-03-04T00:08:41.560Z,96111.41
2023-03-04T00:13:43.060Z,96106.25
2023-03-04T00:18:44.617Z,96116.53
2023-03-04T00:23:46.166Z,96112.84
2023-03-04T00:28:47.716Z,96111.94
2023-03-04T00:33:49.420Z,96103.28
2023-03-04T00:38:50.917Z,96106.94
2023-03-04T00:43:52.450Z,96098.38
2023-03-04T00:48:53.976Z,96109.81
2023-03-04T00:53:55.462Z,96103.38
2023-03-04T00:58:57.002Z,96098.63
2023-03-04T01:03:58.472Z,96094.19
2023-03-04T01:09:01.522Z,96097.94
2023-03-04T01:14:02.996Z,96096.00
2023-03-04T01:19:05.615Z,96090.06
2023-03-04T01:24:07.236Z,96086.81
2023-03-04T01:29:08.764Z,96091.28
2023-03-04T01:34:10.272Z,96085.53
2023-03-04T01:39:11.804Z,96091.41
2023-03-04T01:44:13.603Z,96081.00
2023-03-04T01:49:15.925Z,96076.69
2023-03-04T01:54:17.929Z,96077.00
2023-03-04T01:59:22.370Z,96074.50
2023-03-04T02:04:26.664Z,96072.50
2023-03-04T02:09:29.667Z,96068.22
2023-03-04T02:14:31.364Z,96071.34
2023-03-04T02:19:49.619Z,96075.25
2023-03-04T02:25:03.186Z,96068.22
2023-03-04T02:30:06.208Z,96058.16
2023-03-04T02:35:16.039Z,96053.75
2023-03-04T02:40:23.061Z,96067.81
2023-03-04T02:45:49.592Z,96066.59
2023-03-04T02:50:53.320Z,96065.50
2023-03-04T02:55:54.765Z,96067.13
2023-03-04T03:00:58.832Z,96068.19
2023-03-04T03:06:02.973Z,96057.28
2023-03-04T03:11:05.141Z,96068.19
2023-03-04T03:16:08.443Z,96063.81
2023-03-04T03:21:09.982Z,96059.13
2023-03-04T03:26:11.870Z,96064.84
2023-03-04T03:31:13.823Z,96063.44
2023-03-04T03:36:15.402Z,96061.59
2023-03-04T03:41:16.911Z,96059.63
2023-03-04T03:46:18.452Z,96058.72
2023-03-04T03:51:19.914Z,96055.50
2023-03-04T03:56:21.442Z,96059.06
2023-03-04T04:01:22.968Z,96061.91
2023-03-04T04:06:24.505Z,96059.91
2023-03-04T04:11:26.053Z,96059.72
2023-03-04T04:16:27.684Z,96061.75
2023-03-04T04:21:29.223Z,96055.78
2023-03-04T04:26:30.758Z,96063.78
2023-03-04T04:31:32.244Z,96056.41
2023-03-04T04:36:33.742Z,96061.25
2023-03-04T04:41:38.984Z,96061.75
2023-03-04T04:46:41.185Z,96067.34
2023-03-04T04:51:42.736Z,96065.09
2023-03-04T04:56:44.244Z,96066.75
2023-03-04T05:01:45.788Z,96065.41
2023-03-04T05:06:47.270Z,96068.88
2023-03-04T05:11:49.140Z,96064.88
2023-03-04T05:16:50.693Z,96065.91
2023-03-04T05:21:52.244Z,96060.22
2023-03-04T05:26:53.910Z,96066.56
2023-03-04T05:31:55.469Z,96071.22
2023-03-04T05:36:56.976Z,96065.81
2023-03-04T05:41:58.428Z,96071.78
2023-03-04T05:46:59.926Z,96069.75
2023-03-04T05:52:01.430Z,96072.94
2023-03-04T05:57:02.952Z,96075.63
2023-03-04T06:02:04.617Z,96070.19
2023-03-04T06:07:06.168Z,96077.94
2023-03-04T06:12:07.812Z,96078.22
2023-03-04T06:17:09.310Z,96086.50
2023-03-04T06:22:11.411Z,96084.66
2023-03-04T06:27:12.946Z,96091.69
2023-03-04T06:32:14.474Z,96096.97
2023-03-04T06:37:16.272Z,96103.84
2023-03-04T06:42:17.984Z,96105.31
2023-03-04T06:47:19.444Z,96112.38
2023-03-04T06:52:21.019Z,96119.75
2023-03-04T06:57:22.507Z,96115.00
2023-03-04T07:02:23.967Z,96117.78
2023-03-04T07:07:25.457Z,96124.06
2023-03-04T07:12:26.998Z,96115.31
2023-03-04T07:17:28.469Z,96125.50
2023-03-04T07:22:29.947Z,96123.81
2023-03-04T07:27:31.413Z,96130.38
2023-03-04T07:32:33.361Z,96140.44
2023-03-04T07:37:34.868Z,96133.28
2023-03-04T07:42:36.430Z,96134.00
2023-03-04T07:47:44.012Z,96135.91
2023-03-04T07:52:47.640Z,96137.47
2023-03-04T07:57:49.058Z,96140.31
2023-03-04T08:02:50.565Z,96139.19
2023-03-04T08:07:52.103Z,96137.94
2023-03-04T08:12:53.618Z,96137.78
2023-03-04T08:17:55.056Z,96137.78
2023-03-04T08:22:56.518Z,96134.63
2023-03-04T08:27:58.990Z,96135.13
2023-03-04T08:33:02.073Z,96139.81
2023-03-04T08:38:03.628Z,96134.56
2023-03-04T08:43:05.133Z,96140.22
2023-03-04T08:48:06.840Z,96130.75
2023-03-04T08:53:08.355Z,96138.81
2023-03-04T08:58:11.401Z,96136.97
2023-03-04T09:03:13.034Z,96136.56
2023-03-04T09:08:15.868Z,96139.47
2023-03-04T09:13:17.318Z,96132.97
2023-03-04T09:18:21.016Z,96129.19
2023-03-04T09:23:23.225Z,96124.13
2023-03-04T09:28:24.716Z,96117.09
2023-03-04T09:33:26.256Z,96115.06
2023-03-04T09:38:27.759Z,96107.03
2023-03-04T09:43:30.673Z,96109.56
2023-03-04T09:48:43.149Z,96106.13
2023-03-04T09:53:53.104Z,96103.38
2023-03-04T09:59:24.034Z,96106.31
2023-03-04T10:04:31.189Z,96104.97
2023-03-04T10:09:49.428Z,96093.78
2023-03-04T10:15:16.997Z,96087.09
2023-03-04T10:20:24.845Z,96087.47
2023-03-04T10:25:33.339Z,96084.94
2023-03-04T10:30:57.893Z,96079.22
2023-03-04T10:36:22.288Z,96083.75
2023-03-04T10:41:25.828Z,96075.47
2023-03-04T10:46:27.485Z,96075.94
2023-03-04T10:51:30.182Z,96073.44
2023-03-04T10:56:36.351Z,96071.94
2023-03-04T11:01:38.072Z,96068.50
2023-03-04T11:06:42.546Z,96062.97
2023-03-04T11:11:44.496Z,96053.44
2023-03-04T11:16:54.640Z,96046.06
2023-03-04T11:21:57.909Z,96039.94
2023-03-04T11:27:13.051Z,96036.84
2023-03-04T11:32:20.805Z,96029.66
2023-03-04T11:37:45.688Z,96022.47
2023-03-04T11:42:54.006Z,96024.09
2023-03-04T11:47:55.448Z,96014.56
2023-03-04T11:53:19.946Z,96022.25
2023-03-04T11:58:38.104Z,96008.25
2023-03-04T12:03:57.473Z,96008.00
2023-03-04T12:09:14.352Z,96006.41
2023-03-04T12:14:38.539Z,95998.75
2023-03-04T12:19:53.941Z,95998.44
2023-03-04T12:25:29.241Z,95993.97
2023-03-04T12:30:58.588Z,95982.06
2023-03-04T12:36:06.510Z,95971.41
2023-03-04T12:41:29.805Z,95973.97
2023-03-04T12:46:49.263Z,95968.66
2023-03-04T12:52:12.227Z,95962.50
2023-03-04T12:57:24.069Z,95953.63
2023-03-04T13:02:39.338Z,95949.81
2023-03-04T13:08:12.544Z,95940.78
2023-03-04T13:13:41.320Z,95932.13
2023-03-04T13:18:42.861Z,95931.03
2023-03-04T13:23:44.414Z,95927.16
2023-03-04T13:28:46.101Z,95917.47
2023-03-04T13:33:53.957Z,95908.00
2023-03-04T13:39:03.455Z,95908.28
2023-03-04T13:44:32.849Z,95896.44
2023-03-04T13:49:34.407Z,95893.47
2023-03-04T13:54:35.909Z,95887.44
2023-03-04T13:59:42.944Z,95897.28
2023-03-04T14:04:46.517Z,95892.41
2023-03-04T14:10:06.963Z,95902.47
2023-03-04T14:15:20.953Z,95898.72
2023-03-04T14:20:34.055Z,95893.06
2023-03-04T14:25:37.268Z,95894.53
2023-03-04T14:30:43.728Z,95888.72
2023-03-04T14:35:48.845Z,95877.91
2023-03-04T14:41:00.683Z,95873.81
2023-03-04T14:46:03.438Z,95864.25
2023-03-04T14:51:05.084Z,95863.00
2023-03-04T14:56:09.450Z,95858.56
2023-03-04T15:01:22.856Z,95851.38
2023-03-04T15:06:26.799Z,95851.31
2023-03-04T15:11:32.675Z,95841.09
2023-03-04T15:16:54.925Z,95845.88
2023-03-04T15:22:05.281Z,95843.72
2023-03-04T15:27:11.991Z,95847.31
2023-03-04T15:32:13.605Z,95845.94
2023-03-04T15:37:22.083Z,95846.22
2023-03-04T15:42:23.781Z,95837.88
2023-03-04T15:47:25.301Z,95832.28
2023-03-04T15:52:26.766Z,95831.66
2023-03-04T15:57:28.296Z,95827.13
2023-03-04T16:02:29.775Z,95829.97
2023-03-04T16:07:31.367Z,95832.66
2023-03-04T16:12:33.523Z,95836.53
2023-03-04T16:17:35.059Z,95837.06
2023-03-04T16:22:37.118Z,95839.28
2023-03-04T16:27:39.334Z,95839.41
2023-03-04T16:32:41.059Z,95832.25
2023-03-04T16:37:43.467Z,95840.34
2023-03-04T16:42:44.969Z,95831.25
2023-03-04T16:47:46.756Z,95830.19
2023-03-04T16:52:49.803Z,95826.13
2023-03-04T16:57:52.713Z,95830.09
2023-03-04T17:02:56.953Z,95837.63
2023-03-04T17:07:58.885Z,95839.41
2023-03-04T17:13:00.349Z,95835.97
2023-03-04T17:18:01.814Z,95835.91
2023-03-04T17:23:03.312Z,95832.59
2023-03-04T17:28:05.037Z,95847.47
2023-03-04T17:33:06.540Z,95850.63
2023-03-04T17:38:08.191Z,95856.44
2023-03-04T17:43:09.816Z,95865.69
2023-03-04T17:48:12.045Z,95865.09
2023-03-04T17:53:13.530Z,95865.84
2023-03-04T17:58:14.979Z,95877.53
2023-03-04T18:03:16.519Z,95882.84
2023-03-04T18:08:18.068Z,95872.13
2023-03-04T18:13:19.617Z,95882.97
2023-03-04T18:18:21.567Z,95882.25
2023-03-04T18:23:23.008Z,95881.75
2023-03-04T18:28:24.901Z,95884.13
2023-03-04T18:33:28.812Z,95880.56
2023-03-04T18:38:30.254Z,95892.22
2023-03-04T18:43:31.751Z,95888.66
2023-03-04T18:48:38.310Z,95904.84
2023-03-04T18:53:39.944Z,95890.34
2023-03-04T18:58:45.535Z,95907.97
2023-03-04T19:03:47.741Z,95913.44
2023-03-04T19:08:49.209Z,95929.16
2023-03-04T19:13:53.770Z,95940.13
2023-03-04T19:18:55.356Z,95947.91
2023-03-04T19:23:56.878Z,95947.38
2023-03-04T19:28:58.332Z,95956.13
2023-03-04T19:34:00.014Z,95963.44
2023-03-04T19:39:01.627Z,95975.00
2023-03-04T19:44:03.115Z,95980.16
2023-03-04T19:49:04.935Z,95988.00
2023-03-04T19:54:06.387Z,95998.34
2023-03-04T19:59:07.884Z,96003.06
2023-03-04T20:04:13.338Z,96002.34
2023-03-04T20:09:16.048Z,96020.53
2023-03-04T20:14:17.574Z,96026.88
2023-03-04T20:19:19.038Z,96026.22
2023-03-04T20:24:20.488Z,96030.38
2023-03-04T20:29:22.648Z,96040.25
2023-03-04T20:34:24.299Z,96051.47
2023-03-04T20:39:29.540Z,96051.13
2023-03-04T20:44:31.352Z,96047.41
2023-03-04T20:49:32.836Z,96041.84
2023-03-04T20:54:38.107Z,96037.47
2023-03-04T20:59:40.708Z,96050.00
2023-03-04T21:04:42.718Z,96039.16
2023-03-04T21:09:44.292Z,96042.63
2023-03-04T21:14:46.158Z,96047.00
2023-03-04T21:19:47.601Z,96048.63
2023-03-04T21:24:49.038Z,96046.47
2023-03-04T21:29:50.483Z,96043.56
2023-03-04T21:34:54.288Z,96051.13
2023-03-04T21:39:55.861Z,96044.00
2023-03-04T21:44:57.345Z,96053.38
2023-03-04T21:49:58.799Z,96054.47
2023-03-04T21:55:00.372Z,96047.69
2023-03-04T22:00:01.929Z,96035.72
2023-03-04T22:05:13.312Z,96029.75
2023-03-04T22:10:14.980Z,96029.25
2023-03-04T22:15:16.499Z,96028.91
2023-03-04T22:20:18.070Z,96023.84
2023-03-04T22:25:19.593Z,96029.81
2023-03-04T22:30:21.867Z,96022.91
2023-03-04T22:35:23.408Z,96018.34
2023-03-04T22:40:24.952Z,96009.66
2023-03-04T22:45:26.472Z,96001.47
2023-03-04T22:50:28.268Z,95996.63
2023-03-04T22:55:29.695Z,95994.38
2023-03-04T23:00:32.005Z,95995.66
2023-03-04T23:05:33.494Z,95992.31
2023-03-04T23:10:34.936Z,95998.03
2023-03-04T23:15:36.383Z,95997.09
2023-03-04T23:20:37.858Z,96006.31
2023-03-04T23:25:39.449Z,95998.13
2023-03-04T23:30:40.934Z,95996.41
2023-03-04T23:35:42.458Z,95991.94
2023-03-04T23:40:44.034Z,95984.38
2023-03-04T23:45:45.598Z,95983.91
2023-03-04T23:50:51.679Z,95980.38
2023-03-04T23:55:53.233Z,95982.25
